OSOK1: Oswego hwy 160

                                SHEF ID:       OSOK1     Oswego hwy 160
STATION TYPE:

PRECIP STAGE RIV-FLOW VOLTAGE BAT-LOAD
in ft cfs volt volt
Ccp-Rev Ccp-Rev Ccp-Rev Ccp-Rev Ccp-Rev
(America/Chicago)
05/05 00:00 0.00 13.93 5028 12.77 12.50
05/05 01:00 0.11 13.91 5001 12.76 12.49
05/05 02:00 0.12 13.91 5001 12.73 12.47
05/05 03:00 0.18 13.93 5028 12.71 12.45
05/05 04:00 0.11 13.94 5041 12.70 12.44
05/05 05:00 0.00 13.93 5028 12.69 12.42
05/05 06:00 0.00 13.91 5001 12.67 12.40
05/05 07:00 0.00 13.89 4975 12.69 12.40
05/05 08:00 0.01 13.89 4975 12.71 12.42
05/05 09:00 0.01 13.88 4962 13.15 12.80
05/05 10:00 0.00 13.87 4949 13.97 13.12
05/05 11:00 0.00 13.86 4936 14.40 13.42
05/05 12:00 0.00 13.84 4909 14.36 13.36
05/05 13:00 0.00 13.81 4870 14.37 13.35
05/05 14:00 0.00 13.82 4883 13.97 13.25
05/05 15:00 0.00 13.81 4870 13.99 13.23
05/05 16:00 0.00 13.81 4870 13.99 13.24
05/05 17:00 0.00 13.80 4857 14.03 13.24
05/05 18:00 0.00 13.81 4870 13.98 13.23
05/05 19:00 0.00 13.80 4857 13.34 13.11
05/05 20:00 0.00 13.81 4870 13.09 12.89
05/05 21:00 0.00 13.79 4844 12.92 12.68
05/05 22:00 0.00 13.79 4844 12.82 12.57
05/05 23:00 0.00 13.78 4831 12.78 12.50
Data processed at Wed 06May2026 04:50 GMT

NOTICE: If you are parsing this page

Please convert to using our Data API. Starting early 2026 we will be migrating to: https://water.usace.army.mil with modern pages rendered in JavaScript. When this migration completes you will no longer be able to scrape this page! CWMSDataAPI (CDA)

Timeseries IDs (TSIDs)

TSIDs used from left to right in the data table
OSWN.Precip-Inc.Total.1Hour.1Hour.Ccp-Rev
OSWN.Stage.Inst.1Hour.0.Ccp-Rev
OSWN.Flow.Inst.1Hour.0.Ccp-Rev
OSWN.Volt-Battery.Inst.1Hour.0.Ccp-Rev
OSWN.Volt-Battery Load.Inst.1Hour.0.Ccp-Rev

                            

All information presented herein is the property of the government of the United States of America and may be revised or deleted at any time without prior notice. Dissemination of this information without the expressed written consent of the Public Affairs Office, Tulsa District U.S. Army Corps of Engineers is strictly prohibited. These data are gathered electronically and, as presented, have NOT undergone any form of quality control. These data are NOT guaranteed to be valid or correct.